Time;durP1;ratioP1;P1;durP2;ratioP2;P2;SDS_P1;SDS_P2;PMS_P1;PMS_P2;Temp;Humidity;BMP_temperature;BMP_pressure;BME280_temperature;BME280_humidity;BME280_pressure;Samples;Min_cycle;Max_cycle;Signal;HPM_P1;HPM_P2
2023/01/28 00:02:07;;;;;;;45.15;36.53;;;;;;;-2.19;100.00;95702.97;5078901;28;20078;-69
2023/01/28 00:04:32;;;;;;;47.13;36.70;;;;;;;-2.23;100.00;95712.56;5085459;28;20020;-69
2023/01/28 00:06:57;;;;;;;52.97;41.13;;;;;;;-2.24;100.00;95705.75;5078438;28;20032;-69
2023/01/28 00:09:23;;;;;;;54.60;43.15;;;;;;;-2.29;100.00;95709.44;5084290;28;20023;-69
2023/01/28 00:11:48;;;;;;;50.35;37.70;;;;;;;-2.33;100.00;95706.97;5080268;28;20023;-63
2023/01/28 00:14:14;;;;;;;47.08;36.55;;;;;;;-2.36;100.00;95712.25;5072770;28;20013;-70
2023/01/28 00:16:39;;;;;;;42.45;34.03;;;;;;;-2.35;100.00;95703.59;5079128;28;20050;-69
2023/01/28 00:19:04;;;;;;;39.28;33.50;;;;;;;-2.34;100.00;95694.97;5074236;28;20278;-69
2023/01/28 00:21:30;;;;;;;48.97;36.50;;;;;;;-2.36;100.00;95704.50;5079291;28;20055;-70
2023/01/28 00:23:56;;;;;;;47.40;36.85;;;;;;;-2.34;100.00;95702.72;5077928;28;20119;-70
2023/01/28 00:26:22;;;;;;;51.92;37.65;;;;;;;-2.33;100.00;95693.25;5080614;28;20039;-70
2023/01/28 00:28:48;;;;;;;43.35;35.90;;;;;;;-2.29;100.00;95688.81;5076239;28;20044;-70
2023/01/28 00:31:19;;;;;;;46.03;36.35;;;;;;;-2.29;100.00;95694.78;5081413;28;20063;-63
2023/01/28 00:33:46;;;;;;;42.45;34.58;;;;;;;-2.28;100.00;95690.47;5081534;28;20024;-62
2023/01/28 00:36:12;;;;;;;44.35;36.65;;;;;;;-2.32;100.00;95694.91;5082871;28;20056;-62
2023/01/28 00:38:38;;;;;;;44.75;36.72;;;;;;;-2.32;100.00;95690.63;5085503;28;20047;-62
2023/01/28 00:41:15;;;;;;;49.78;38.25;;;;;;;-2.31;100.00;95694.88;5084269;28;20024;-63
2023/01/28 00:43:42;;;;;;;54.15;40.30;;;;;;;-2.29;100.00;95691.38;5079572;28;20024;-62
2023/01/28 00:46:09;;;;;;;50.95;37.75;;;;;;;-2.32;100.00;95682.88;5078267;28;20020;-62
2023/01/28 00:48:35;;;;;;;51.20;38.28;;;;;;;-2.35;100.00;95682.97;5083703;28;20043;-67
2023/01/28 00:51:01;;;;;;;49.95;39.70;;;;;;;-2.33;100.00;95688.91;5082254;28;20028;-63
2023/01/28 00:53:27;;;;;;;49.45;38.20;;;;;;;-2.34;100.00;95683.81;5079275;28;20028;-63
2023/01/28 00:55:53;;;;;;;54.13;40.47;;;;;;;-2.35;100.00;95688.13;5073737;28;20050;-63
2023/01/28 00:58:18;;;;;;;54.35;40.65;;;;;;;-2.37;100.00;95684.78;5074584;28;20048;-64
2023/01/28 01:00:44;;;;;;;48.03;38.50;;;;;;;-2.36;100.00;95685.63;5080441;28;20482;-63
2023/01/28 01:03:10;;;;;;;46.55;37.78;;;;;;;-2.36;100.00;95681.31;5072650;28;20405;-63
2023/01/28 01:05:35;;;;;;;39.80;31.70;;;;;;;-2.37;100.00;95683.97;5081782;28;20092;-63
2023/01/28 01:08:01;;;;;;;40.17;32.35;;;;;;;-2.39;100.00;95685.78;5087653;28;20061;-67
2023/01/28 01:10:27;;;;;;;49.17;36.40;;;;;;;-2.38;100.00;95677.94;5080749;28;20050;-64
2023/01/28 01:12:52;;;;;;;58.38;40.88;;;;;;;-2.36;100.00;95688.22;5083704;28;20542;-74
2023/01/28 01:15:18;;;;;;;50.80;40.95;;;;;;;-2.39;100.00;95689.16;5081394;28;20059;-74
2023/01/28 01:17:47;;;;;;;46.17;37.47;;;;;;;-2.40;100.00;95682.34;5081736;28;20067;-74
2023/01/28 01:20:44;;;;;;;42.58;36.40;;;;;;;-2.32;100.00;95685.47;5082916;28;20025;-74
2023/01/28 01:23:09;;;;;;;48.85;36.88;;;;;;;-2.35;100.00;95685.56;5086483;28;20036;-74
2023/01/28 01:25:35;;;;;;;47.47;37.80;;;;;;;-2.38;100.00;95683.09;5080835;28;20024;-75
2023/01/28 01:28:00;;;;;;;41.50;34.05;;;;;;;-2.38;100.00;95687.44;5083565;28;20111;-63
2023/01/28 01:30:26;;;;;;;42.95;33.45;;;;;;;-2.37;100.00;95683.97;5080327;28;20020;-63
2023/01/28 01:32:51;;;;;;;43.70;34.40;;;;;;;-2.38;100.00;95692.59;5077574;28;20027;-62
2023/01/28 01:35:17;;;;;;;45.67;35.92;;;;;;;-2.35;100.00;95692.47;5074826;28;20031;-62
2023/01/28 01:37:43;;;;;;;49.95;38.65;;;;;;;-2.23;99.20;95697.09;5086028;28;20023;-62
2023/01/28 01:40:09;;;;;;;57.80;40.63;;;;;;;-2.28;98.86;95701.63;5082743;28;20040;-62
2023/01/28 01:42:35;;;;;;;55.22;39.83;;;;;;;-2.32;99.78;95700.06;5078358;28;20044;-62
2023/01/28 01:45:04;;;;;;;52.70;36.92;;;;;;;-2.35;99.33;95698.44;5088675;28;20067;-62
2023/01/28 01:47:57;;;;;;;42.03;33.25;;;;;;;-2.36;98.84;95696.78;5090631;28;20034;-62
2023/01/28 01:50:30;;;;;;;36.95;29.90;;;;;;;-2.34;98.71;95697.53;5071298;28;20086;-64
2023/01/28 01:53:01;;;;;;;34.78;29.23;;;;;;;-2.33;97.88;95699.22;5086256;28;20035;-63
2023/01/28 01:55:30;;;;;;;41.38;31.15;;;;;;;-2.34;99.84;95696.72;5079333;28;20080;-63
2023/01/28 01:57:59;;;;;;;42.80;32.47;;;;;;;-2.37;99.85;95697.69;5075441;28;20494;-63
2023/01/28 02:00:25;;;;;;;45.80;33.17;;;;;;;-2.38;100.00;95698.59;5053490;28;20436;-62
2023/01/28 02:02:52;;;;;;;41.05;32.65;;;;;;;-2.39;99.82;95696.91;5086463;28;20036;-62
2023/01/28 02:05:19;;;;;;;42.55;31.80;;;;;;;-2.39;99.42;95693.50;5084390;28;20032;-62
2023/01/28 02:07:47;;;;;;;42.25;32.25;;;;;;;-2.33;98.67;95693.25;5081238;28;20047;-63
2023/01/28 02:10:13;;;;;;;42.10;31.08;;;;;;;-2.34;98.31;95694.97;5082726;28;20023;-74
2023/01/28 02:12:43;;;;;;;42.30;31.33;;;;;;;-2.36;98.84;95691.63;5082667;28;20044;-74
2023/01/28 02:15:13;;;;;;;37.75;30.85;;;;;;;-2.41;99.71;95696.13;5083019;28;20409;-74
2023/01/28 02:17:39;;;;;;;37.60;30.25;;;;;;;-2.41;100.00;95683.25;5080938;28;20032;-74
2023/01/28 02:20:04;;;;;;;38.08;30.83;;;;;;;-2.39;99.48;95696.91;5078747;28;20107;-73
2023/01/28 02:22:51;;;;;;;62.35;36.03;;;;;;;-2.40;99.09;95687.50;5081440;28;20434;-73
2023/01/28 02:25:42;;;;;;;54.22;34.92;;;;;;;-2.39;98.60;95684.00;5072418;28;20036;-74
2023/01/28 02:28:20;;;;;;;87.93;43.67;;;;;;;-2.35;98.17;95688.13;5080860;28;20075;-64
2023/01/28 02:30:59;;;;;;;109.72;47.85;;;;;;;-2.35;98.33;95685.56;5075468;28;20112;-62
2023/01/28 02:33:34;;;;;;;142.77;59.25;;;;;;;-2.32;97.60;95690.63;5076092;28;20108;-63
2023/01/28 02:36:08;;;;;;;150.38;58.92;;;;;;;-2.35;98.12;95687.31;5081538;28;20103;-61
2023/01/28 02:38:42;;;;;;;130.05;57.10;;;;;;;-2.36;99.07;95689.03;5082254;28;20433;-62
2023/01/28 02:41:13;;;;;;;103.32;47.45;;;;;;;-2.38;98.18;95693.41;5081064;28;20114;-62
2023/01/28 02:43:45;;;;;;;51.78;33.13;;;;;;;-2.40;99.19;95690.06;5077831;28;20027;-62
2023/01/28 02:49:17;;;;;;;35.38;26.30;;;;;;;-2.43;99.38;95692.78;5084892;28;20066;-61
2023/01/28 02:52:01;;;;;;;35.95;26.85;;;;;;;-2.45;99.51;95692.81;5071999;28;20491;-62
2023/01/28 02:54:41;;;;;;;39.15;27.88;;;;;;;-2.48;100.00;95698.13;5083008;28;20058;-62
2023/01/28 02:57:31;;;;;;;31.88;24.42;;;;;;;-2.46;98.92;95701.47;5080918;28;20402;-62
2023/01/28 03:00:05;;;;;;;26.05;22.70;;;;;;;-2.42;98.70;95701.38;5084479;28;20046;-62
2023/01/28 03:02:41;;;;;;;29.80;22.55;;;;;;;-2.45;99.21;95697.16;5079648;28;20107;-62
2023/01/28 03:05:12;;;;;;;29.27;23.85;;;;;;;-2.46;99.21;95698.06;5086522;28;20016;-62
2023/01/28 03:07:38;;;;;;;24.25;21.00;;;;;;;-2.48;98.48;95700.69;5083710;28;20103;-69
2023/01/28 03:10:08;;;;;;;27.42;22.23;;;;;;;-2.46;97.76;95690.31;5086466;28;20027;-62
2023/01/28 03:38:42;;;;;;;30.63;25.65;;;;;;;-2.44;97.30;95698.84;5090252;28;20077;-61
2023/01/28 03:41:11;;;;;;;32.35;26.67;;;;;;;-2.43;97.83;95697.94;5090421;28;20031;-62
2023/01/28 03:43:37;;;;;;;31.83;26.60;;;;;;;-2.44;98.06;95693.69;5090299;28;20027;-64
2023/01/28 03:46:05;;;;;;;33.75;27.80;;;;;;;-2.39;96.54;95694.31;5090360;28;20535;-67
2023/01/28 03:48:30;;;;;;;35.53;28.48;;;;;;;-2.44;96.01;95696.25;5090494;28;20023;-67
2023/01/28 03:50:59;;;;;;;30.75;25.75;;;;;;;-2.43;97.45;95704.81;5090421;28;20020;-67
2023/01/28 03:53:25;;;;;;;35.08;27.38;;;;;;;-2.42;98.02;95696.22;5090112;28;20455;-67
2023/01/28 03:55:52;;;;;;;32.15;26.25;;;;;;;-2.44;98.69;95696.25;5090009;28;20032;-67
2023/01/28 03:58:18;;;;;;;31.50;26.50;;;;;;;-2.46;98.61;95700.66;5089540;28;20096;-67
2023/01/28 04:00:43;;;;;;;34.25;25.65;;;;;;;-2.47;99.66;95693.81;5090373;28;20024;-67
2023/01/28 04:03:17;;;;;;;34.25;27.73;;;;;;;-2.40;98.95;95702.13;5101798;28;20505;-63
2023/01/28 04:05:44;;;;;;;33.50;27.85;;;;;;;-2.40;99.39;95707.28;5089301;28;20055;-66
2023/01/28 04:08:10;;;;;;;30.58;26.00;;;;;;;-2.40;99.07;95710.69;5089570;28;20069;-67
2023/01/28 04:10:38;;;;;;;30.48;25.05;;;;;;;-2.38;98.78;95713.22;5089901;28;20028;-67
2023/01/28 04:13:04;;;;;;;32.50;26.02;;;;;;;-2.41;99.06;95713.34;5089476;28;20020;-67
2023/01/28 04:15:29;;;;;;;30.75;27.02;;;;;;;-2.41;99.15;95714.19;5089687;28;20031;-67
2023/01/28 04:17:55;;;;;;;31.58;27.02;;;;;;;-2.41;98.86;95715.94;5089929;28;20024;-67
2023/01/28 04:20:21;;;;;;;32.38;27.15;;;;;;;-2.42;99.23;95712.50;5089892;28;20450;-67
2023/01/28 04:22:46;;;;;;;31.88;27.55;;;;;;;-2.37;98.91;95718.31;5089829;28;20028;-62
2023/01/28 04:25:12;;;;;;;35.13;28.98;;;;;;;-2.35;99.14;95713.09;5089769;28;20481;-64
2023/01/28 04:27:37;;;;;;;33.90;29.45;;;;;;;-2.37;99.96;95710.56;5089650;28;20024;-62
2023/01/28 04:30:03;;;;;;;36.85;29.58;;;;;;;-2.38;100.00;95719.22;5089817;28;20537;-63
2023/01/28 04:32:28;;;;;;;35.05;29.45;;;;;;;-2.41;99.99;95710.78;5089043;28;20089;-63
2023/01/28 04:34:54;;;;;;;33.42;28.05;;;;;;;-2.41;100.00;95703.03;5089798;28;20059;-62
2023/01/28 04:37:19;;;;;;;34.15;28.00;;;;;;;-2.46;100.00;95710.97;5089584;28;20023;-62
2023/01/28 04:39:44;;;;;;;34.28;28.42;;;;;;;-2.45;100.00;95713.47;5089511;28;20044;-62
2023/01/28 04:42:10;;;;;;;37.72;30.20;;;;;;;-2.43;100.00;95710.81;5089041;28;20068;-62
2023/01/28 04:44:35;;;;;;;35.55;29.70;;;;;;;-2.46;100.00;95710.97;5089394;28;20571;-67
2023/01/28 04:47:00;;;;;;;36.42;29.85;;;;;;;-2.49;100.00;95705.94;5089188;28;20028;-68
2023/01/28 04:49:26;;;;;;;38.70;30.38;;;;;;;-2.49;100.00;95716.25;5089521;28;20027;-68
2023/01/28 04:51:51;;;;;;;36.63;30.20;;;;;;;-2.47;100.00;95717.03;5089748;28;20023;-67
2023/01/28 04:54:16;;;;;;;36.00;29.98;;;;;;;-2.51;100.00;95710.31;5089067;28;20063;-68
2023/01/28 04:56:42;;;;;;;35.08;29.02;;;;;;;-2.51;100.00;95702.56;5089355;28;20054;-68
2023/01/28 04:59:07;;;;;;;36.25;31.30;;;;;;;-2.51;100.00;95716.28;5071116;28;20058;-68
2023/01/28 05:01:33;;;;;;;38.67;32.13;;;;;;;-2.47;100.00;95714.44;5088758;28;20556;-62
2023/01/28 05:03:58;;;;;;;38.17;30.63;;;;;;;-2.42;100.00;95709.94;5080287;28;20493;-70
2023/01/28 05:06:24;;;;;;;39.22;31.00;;;;;;;-2.45;100.00;95708.28;5086930;28;20031;-64
2023/01/28 05:08:49;;;;;;;38.00;32.17;;;;;;;-2.46;100.00;95711.78;5090034;28;20039;-63
2023/01/28 05:11:14;;;;;;;35.05;29.73;;;;;;;-2.48;100.00;95708.44;5092823;28;20035;-63
2023/01/28 05:13:40;;;;;;;37.92;31.85;;;;;;;-2.48;100.00;95702.44;5075422;28;20024;-62
2023/01/28 05:16:05;;;;;;;41.03;32.95;;;;;;;-2.47;100.00;95711.84;5093224;28;20024;-63
2023/01/28 05:18:31;;;;;;;40.00;31.08;;;;;;;-2.50;100.00;95715.38;5092761;28;20036;-62
2023/01/28 05:20:57;;;;;;;40.47;32.83;;;;;;;-2.53;100.00;95712.13;5093194;28;20024;-69
2023/01/28 05:23:22;;;;;;;40.92;33.20;;;;;;;-2.54;100.00;95718.16;5093566;28;20028;-73
2023/01/28 05:25:48;;;;;;;38.85;31.05;;;;;;;-2.52;100.00;95711.22;5085140;28;20032;-73
2023/01/28 05:28:14;;;;;;;37.63;32.08;;;;;;;-2.47;100.00;95717.03;5061407;28;20029;-73
2023/01/28 05:30:39;;;;;;;44.80;33.60;;;;;;;-2.43;100.00;95718.56;5090123;28;20032;-73
2023/01/28 05:33:05;;;;;;;43.03;34.50;;;;;;;-2.46;100.00;95721.28;5088468;28;20054;-74
2023/01/28 05:35:30;;;;;;;41.08;33.42;;;;;;;-2.41;100.00;95718.53;5086239;28;20050;-73
2023/01/28 05:37:56;;;;;;;41.13;32.90;;;;;;;-2.42;100.00;95722.81;5082665;28;20044;-74
2023/01/28 05:40:21;;;;;;;39.20;32.55;;;;;;;-2.46;100.00;95723.84;5081627;28;20031;-62
2023/01/28 05:42:47;;;;;;;40.72;34.38;;;;;;;-2.38;100.00;95726.13;5086352;28;20031;-67
2023/01/28 05:45:12;;;;;;;42.88;33.05;;;;;;;-2.48;100.00;95729.06;5089035;28;20478;-67
2023/01/28 05:47:39;;;;;;;38.25;31.63;;;;;;;-2.46;100.00;95727.25;5087737;28;20102;-67
2023/01/28 05:50:06;;;;;;;39.00;32.08;;;;;;;-2.49;100.00;95726.56;5079022;28;20036;-67
2023/01/28 05:52:32;;;;;;;40.13;32.53;;;;;;;-2.50;100.00;95725.69;5091412;28;20022;-66
2023/01/28 05:54:57;;;;;;;37.10;32.15;;;;;;;-2.53;100.00;95725.81;5087662;28;20090;-67
2023/01/28 05:57:22;;;;;;;35.58;30.02;;;;;;;-2.50;100.00;95736.00;5083494;28;20078;-67
2023/01/28 05:59:48;;;;;;;33.92;28.70;;;;;;;-2.49;100.00;95742.03;5087321;28;20019;-67
2023/01/28 06:02:13;;;;;;;33.65;29.95;;;;;;;-2.52;100.00;95745.56;5086648;28;20112;-69
2023/01/28 06:04:38;;;;;;;30.65;27.15;;;;;;;-2.52;100.00;95737.81;5083812;28;20535;-69
2023/01/28 06:07:04;;;;;;;30.20;25.65;;;;;;;-2.47;99.44;95745.38;5082669;28;20107;-69
2023/01/28 06:09:29;;;;;;;32.40;26.20;;;;;;;-2.43;99.01;95740.91;5081913;28;20027;-69
2023/01/28 06:11:54;;;;;;;38.75;29.33;;;;;;;-2.44;99.43;95740.09;5084299;28;20033;-70
2023/01/28 06:14:20;;;;;;;36.03;29.92;;;;;;;-2.49;99.79;95737.69;5076878;28;20056;-70
2023/01/28 06:16:45;;;;;;;35.55;30.05;;;;;;;-2.46;99.67;95736.75;5085967;28;20035;-69
2023/01/28 06:19:11;;;;;;;33.53;28.67;;;;;;;-2.45;99.59;95743.56;5090567;28;20077;-62
2023/01/28 06:21:36;;;;;;;37.63;31.13;;;;;;;-2.45;96.85;95751.31;5089679;28;20024;-74
2023/01/28 06:24:01;;;;;;;34.75;26.73;;;;;;;-2.43;96.54;95757.25;5080943;28;20051;-73
2023/01/28 06:26:27;;;;;;;53.78;37.08;;;;;;;-2.46;94.60;95755.63;5086873;28;20021;-73
2023/01/28 06:28:52;;;;;;;41.05;33.10;;;;;;;-2.45;95.06;95753.88;5086247;28;20498;-74
2023/01/28 06:31:18;;;;;;;23.77;21.05;;;;;;;-2.40;94.61;95757.13;5079552;28;20856;-73
2023/01/28 06:33:43;;;;;;;24.45;20.25;;;;;;;-2.38;95.33;95759.66;5089590;28;20505;-73
2023/01/28 06:36:09;;;;;;;23.35;20.70;;;;;;;-2.42;95.02;95764.06;5087294;28;20052;-73
2023/01/28 06:38:34;;;;;;;32.20;27.52;;;;;;;-2.43;96.67;95756.38;5082731;28;20052;-63
2023/01/28 06:40:59;;;;;;;39.47;30.42;;;;;;;-2.27;96.74;95767.78;5061133;28;20173;-63
2023/01/28 06:43:26;;;;;;;36.50;30.50;;;;;;;-2.16;97.73;95762.19;5081769;28;20024;-62
2023/01/28 06:45:58;;;;;;;38.85;32.78;;;;;;;-2.24;97.32;95772.00;5079674;28;20033;-63
2023/01/28 06:48:24;;;;;;;46.15;36.28;;;;;;;-2.45;98.90;95777.91;5086861;28;20024;-62
2023/01/28 06:50:50;;;;;;;63.35;53.95;;;;;;;-2.56;100.00;95767.19;5078181;28;20520;-62
2023/01/28 06:53:17;;;;;;;48.05;41.38;;;;;;;-2.60;100.00;95769.06;5081521;28;20048;-62
2023/01/28 06:55:42;;;;;;;48.72;38.58;;;;;;;-2.65;100.00;95768.41;5081904;28;20032;-61
2023/01/28 06:58:07;;;;;;;45.72;37.78;;;;;;;-2.65;100.00;95767.56;5080237;28;20035;-69
2023/01/28 07:00:33;;;;;;;40.20;35.00;;;;;;;-2.67;100.00;95770.19;5079355;28;20433;-63
2023/01/28 07:02:58;;;;;;;40.33;34.70;;;;;;;-2.66;100.00;95779.59;5092302;28;20036;-63
2023/01/28 07:05:24;;;;;;;37.90;33.25;;;;;;;-2.61;100.00;95769.13;5083988;28;20016;-62
2023/01/28 07:07:50;;;;;;;42.38;32.92;;;;;;;-2.60;100.00;95770.81;5082964;28;20421;-63
2023/01/28 07:10:16;;;;;;;42.40;33.88;;;;;;;-2.60;100.00;95776.78;5080725;28;20024;-61
2023/01/28 07:12:41;;;;;;;43.53;34.03;;;;;;;-2.59;100.00;95770.72;5081407;28;20371;-62
2023/01/28 07:15:09;;;;;;;41.20;33.15;;;;;;;-2.55;100.00;95768.03;5067054;28;20020;-63
2023/01/28 07:17:35;;;;;;;39.92;34.08;;;;;;;-2.57;100.00;95770.69;5086240;28;20048;-62
2023/01/28 07:20:00;;;;;;;39.95;33.65;;;;;;;-2.57;100.00;95774.97;5087491;28;20062;-68
2023/01/28 07:22:26;;;;;;;41.15;34.63;;;;;;;-2.55;100.00;95778.34;5085395;28;20035;-68
2023/01/28 07:24:51;;;;;;;41.33;33.28;;;;;;;-2.57;100.00;95783.56;5086517;28;20103;-67
2023/01/28 07:27:16;;;;;;;43.53;34.55;;;;;;;-2.55;100.00;95786.06;5085899;28;20016;-68
2023/01/28 07:29:42;;;;;;;39.50;33.85;;;;;;;-2.52;100.00;95797.13;5085495;28;20012;-68
2023/01/28 07:32:07;;;;;;;40.65;33.30;;;;;;;-2.54;100.00;95800.66;5081039;28;20031;-69
2023/01/28 07:34:33;;;;;;;40.63;34.65;;;;;;;-2.51;100.00;95800.56;5084292;28;20422;-67
2023/01/28 07:36:58;;;;;;;40.03;33.78;;;;;;;-2.51;100.00;95805.72;5086129;28;20040;-69
2023/01/28 07:39:23;;;;;;;37.55;32.28;;;;;;;-2.55;100.00;95798.97;5085687;28;20059;-68
2023/01/28 07:41:49;;;;;;;39.92;33.60;;;;;;;-2.55;100.00;95791.22;5082986;28;20089;-67
2023/01/28 07:44:14;;;;;;;43.78;35.58;;;;;;;-2.56;100.00;95800.72;5082845;28;20059;-68
2023/01/28 07:46:39;;;;;;;38.70;33.42;;;;;;;-2.56;100.00;95807.59;5083216;28;20055;-67
2023/01/28 07:49:05;;;;;;;39.78;32.78;;;;;;;-2.53;100.00;95807.50;5086147;28;20063;-69
2023/01/28 07:51:30;;;;;;;41.03;33.15;;;;;;;-2.39;100.00;95814.72;5084530;28;20043;-69
2023/01/28 07:53:56;;;;;;;37.53;31.75;;;;;;;-2.41;100.00;95825.06;5086570;28;20032;-69
2023/01/28 07:56:21;;;;;;;41.00;32.50;;;;;;;-2.37;100.00;95829.19;5083720;28;20029;-71
2023/01/28 07:58:51;;;;;;;40.08;34.08;;;;;;;-2.36;100.00;95824.91;5084950;28;20509;-63
2023/01/28 08:01:17;;;;;;;41.25;34.00;;;;;;;-2.33;100.00;95830.75;5087255;28;20494;-63
2023/01/28 08:03:42;;;;;;;38.53;32.30;;;;;;;-2.32;100.00;95837.63;5085486;28;20027;-62
2023/01/28 08:06:08;;;;;;;46.38;36.85;;;;;;;-2.33;100.00;95833.34;5086702;28;20012;-63
2023/01/28 08:08:33;;;;;;;45.53;38.40;;;;;;;-2.31;100.00;95830.72;5089278;28;20024;-62
2023/01/28 08:11:07;;;;;;;45.03;37.20;;;;;;;-2.27;100.00;95840.00;5087544;28;20040;-64
2023/01/28 08:13:33;;;;;;;41.25;35.88;;;;;;;-2.20;100.00;95850.94;5070502;28;20043;-67
2023/01/28 08:15:58;;;;;;;50.28;37.60;;;;;;;-2.27;100.00;95844.34;5085764;28;20460;-60
2023/01/28 08:18:23;;;;;;;47.53;37.47;;;;;;;-2.32;100.00;95840.19;5079344;28;20111;-69
2023/01/28 08:20:54;;;;;;;47.75;37.20;;;;;;;-2.35;100.00;95844.63;5087185;28;20036;-69
2023/01/28 08:23:20;;;;;;;45.47;37.63;;;;;;;-2.34;100.00;95847.13;5086902;28;20024;-70
2023/01/28 08:25:46;;;;;;;46.90;38.28;;;;;;;-2.27;100.00;95847.75;5085862;28;20090;-69
2023/01/28 08:28:13;;;;;;;51.28;39.17;;;;;;;-2.25;100.00;95845.94;5090156;28;20456;-72
2023/01/28 08:30:39;;;;;;;44.00;37.13;;;;;;;-2.20;100.00;95851.78;5091918;28;20024;-74
2023/01/28 08:33:10;;;;;;;45.85;36.85;;;;;;;-2.16;100.00;95858.50;5085035;28;20087;-75
2023/01/28 08:35:36;;;;;;;40.42;32.97;;;;;;;-2.12;100.00;95851.44;5083908;28;20048;-61
2023/01/28 08:38:03;;;;;;;42.45;34.17;;;;;;;-2.05;99.15;95855.50;5085301;28;20356;-63
2023/01/28 08:40:28;;;;;;;41.83;32.85;;;;;;;-2.02;97.71;95857.94;5085268;28;20114;-63
2023/01/28 08:42:55;;;;;;;39.00;33.05;;;;;;;-1.92;97.48;95863.59;5081635;28;20115;-62
2023/01/28 08:45:23;;;;;;;41.97;34.45;;;;;;;-1.91;96.31;95869.56;5079359;28;20016;-63
2023/01/28 08:48:00;;;;;;;41.97;35.70;;;;;;;-1.87;95.77;95869.38;5084504;28;20016;-64
2023/01/28 08:50:31;;;;;;;46.63;37.50;;;;;;;-1.79;95.01;95878.56;5083172;28;20027;-64
2023/01/28 08:52:59;;;;;;;43.33;35.05;;;;;;;-1.81;94.65;95886.38;5081664;28;20103;-64
2023/01/28 08:55:25;;;;;;;67.45;49.50;;;;;;;-1.78;94.69;95893.16;5080622;28;20031;-62
2023/01/28 08:57:51;;;;;;;47.03;36.58;;;;;;;-1.79;94.72;95897.47;5083172;28;20039;-63
2023/01/28 09:00:17;;;;;;;49.58;37.55;;;;;;;-1.73;95.29;95892.06;5062453;28;20044;-64
2023/01/28 09:02:42;;;;;;;42.67;34.20;;;;;;;-1.73;95.05;95893.81;5081707;28;20077;-63
2023/01/28 09:05:08;;;;;;;44.40;36.40;;;;;;;-1.68;95.78;95891.88;5088066;28;20016;-63
2023/01/28 09:07:34;;;;;;;40.38;35.60;;;;;;;-1.47;95.07;95903.06;5088657;28;20509;-63
2023/01/28 09:09:59;;;;;;;41.13;35.50;;;;;;;-1.45;94.34;95909.00;5091621;28;20528;-64
2023/01/28 09:12:25;;;;;;;44.45;38.00;;;;;;;-1.49;93.68;95904.06;5089709;28;20032;-70
2023/01/28 09:14:51;;;;;;;42.85;33.53;;;;;;;-1.48;93.48;95909.13;5096619;28;20443;-67
2023/01/28 09:17:17;;;;;;;42.42;34.65;;;;;;;-1.48;91.70;95916.06;5096490;28;20041;-71
2023/01/28 09:19:43;;;;;;;37.72;31.98;;;;;;;-1.53;91.67;95911.06;5089680;28;20619;-71
2023/01/28 09:22:08;;;;;;;34.67;30.67;;;;;;;-1.51;90.52;95917.00;5088628;28;20028;-70
2023/01/28 09:24:33;;;;;;;33.60;28.83;;;;;;;-1.52;89.25;95917.91;5089234;28;20046;-70
2023/01/28 09:26:59;;;;;;;45.35;37.03;;;;;;;-1.58;86.93;95925.94;5088135;28;20028;-70
2023/01/28 09:29:24;;;;;;;83.50;60.80;;;;;;;-1.62;87.56;95930.34;5087811;28;20027;-70
2023/01/28 09:31:49;;;;;;;47.63;39.00;;;;;;;-1.46;88.93;95930.56;5082560;28;20035;-70
2023/01/28 09:34:15;;;;;;;36.45;30.83;;;;;;;-1.34;88.26;95931.00;5072131;28;20028;-62
2023/01/28 09:36:40;;;;;;;37.92;30.88;;;;;;;-1.27;87.86;95935.00;5084224;28;20539;-62
2023/01/28 09:42:24;;;;;;;33.60;28.33;;;;;;;-1.19;88.31;95940.69;5085189;28;20039;-62
2023/01/28 09:45:07;;;;;;;35.53;30.77;;;;;;;-1.20;86.89;95946.78;5088476;28;20039;-62
2023/01/28 09:47:54;;;;;;;38.17;31.55;;;;;;;-1.23;87.34;95949.47;5080850;28;20028;-63
2023/01/28 09:50:27;;;;;;;39.55;30.48;;;;;;;-1.16;85.66;95952.63;5081579;28;20027;-64
2023/01/28 09:52:56;;;;;;;37.10;30.90;;;;;;;-1.08;85.50;95953.19;5087537;28;20040;-62
2023/01/28 09:55:32;;;;;;;39.50;31.13;;;;;;;-1.01;85.42;95951.16;5088510;28;20494;-65
2023/01/28 09:57:58;;;;;;;34.65;29.35;;;;;;;-0.99;84.39;95954.53;5092682;28;20035;-65
2023/01/28 10:00:57;;;;;;;35.75;31.15;;;;;;;-1.01;84.13;95956.31;5092188;28;20020;-64
2023/01/28 10:04:02;;;;;;;31.85;27.00;;;;;;;-0.99;82.38;95954.53;5104017;28;20116;-64
2023/01/28 10:06:42;;;;;;;34.42;28.35;;;;;;;-0.95;82.38;95961.25;5039146;28;20107;-64
2023/01/28 10:09:10;;;;;;;30.95;25.63;;;;;;;-0.88;81.46;95954.09;5092222;28;20103;-67
2023/01/28 10:11:53;;;;;;;31.17;27.48;;;;;;;-0.76;81.00;95965.63;5092083;28;20027;-65
2023/01/28 10:14:26;;;;;;;36.05;25.27;;;;;;;-0.78;79.69;95960.53;5092300;28;20023;-70
2023/01/28 10:17:18;;;;;;;38.78;26.98;;;;;;;-0.67;80.00;95965.22;5092412;28;20024;-71
2023/01/28 10:19:52;;;;;;;32.05;27.45;;;;;;;-0.50;79.51;95966.25;5072542;28;20046;-70
2023/01/28 10:22:25;;;;;;;30.27;26.83;;;;;;;-0.57;77.93;95970.84;5091993;28;20379;-71
2023/01/28 10:25:05;;;;;;;33.17;29.10;;;;;;;-0.57;79.61;95968.25;5091913;28;20028;-71
2023/01/28 10:27:32;;;;;;;39.60;35.47;;;;;;;-0.49;78.77;95976.50;5091964;28;20051;-71
2023/01/28 10:30:21;;;;;;;34.90;27.85;;;;;;;-0.45;78.57;95967.69;5091985;28;20127;-60
2023/01/28 10:32:55;;;;;;;34.20;30.55;;;;;;;-0.38;78.87;95970.88;5063374;28;20051;-63
2023/01/28 10:35:21;;;;;;;37.42;31.10;;;;;;;-0.28;77.50;95970.47;5091902;28;20024;-62
2023/01/28 10:37:48;;;;;;;37.35;31.02;;;;;;;-0.29;77.97;95969.63;5091968;28;20170;-64
2023/01/28 10:40:15;;;;;;;43.05;34.38;;;;;;;-0.35;77.87;95968.13;5091619;28;20051;-62
2023/01/28 10:42:41;;;;;;;39.67;31.55;;;;;;;-0.25;77.17;95971.16;5091753;28;20028;-63
2023/01/28 10:45:12;;;;;;;48.60;36.25;;;;;;;-0.25;74.59;95970.34;5091329;28;20030;-62
2023/01/28 10:48:02;;;;;;;31.08;27.50;;;;;;;-0.01;74.90;95969.22;5089739;28;20023;-71
2023/01/28 10:50:30;;;;;;;35.88;30.42;;;;;;;0.07;73.05;95968.03;5054318;28;20091;-72
2023/01/28 10:52:56;;;;;;;46.67;35.33;;;;;;;0.18;72.08;95963.19;5091435;28;20115;-63
2023/01/28 10:55:23;;;;;;;48.08;39.13;;;;;;;0.30;71.10;95950.56;5093603;28;20028;-60
2023/01/28 10:57:49;;;;;;;56.53;38.15;;;;;;;0.27;70.93;95952.38;5093275;28;20080;-64
2023/01/28 11:00:36;;;;;;;55.45;41.03;;;;;;;0.31;70.00;95952.25;5100634;28;20038;-62
2023/01/28 11:03:02;;;;;;;63.30;42.85;;;;;;;0.32;70.42;95953.91;5091254;28;20019;-62
2023/01/28 11:05:30;;;;;;;49.33;35.85;;;;;;;0.39;70.53;95956.16;5095278;28;20020;-63
2023/01/28 11:08:13;;;;;;;39.50;31.70;;;;;;;0.38;71.10;95954.47;5090536;28;20027;-60
2023/01/28 11:10:39;;;;;;;72.85;50.05;;;;;;;0.34;71.34;95954.72;5090489;28;20040;-61
2023/01/28 11:13:13;;;;;;;47.72;36.50;;;;;;;0.37;71.15;95957.97;5090824;28;20032;-62
2023/01/28 11:15:46;;;;;;;48.50;36.50;;;;;;;0.50;71.11;95952.22;5090435;28;20698;-64
2023/01/28 11:18:17;;;;;;;39.00;29.75;;;;;;;0.63;70.16;95957.66;5091416;28;20032;-63
2023/01/28 11:20:51;;;;;;;26.67;23.67;;;;;;;0.47;70.29;95955.78;5089973;28;20502;-63
2023/01/28 11:23:26;;;;;;;26.55;23.00;;;;;;;0.49;70.69;95955.72;5088881;28;20032;-63
2023/01/28 11:26:20;;;;;;;26.17;22.35;;;;;;;0.35;71.33;95952.03;5090683;28;20099;-67
2023/01/28 11:28:46;;;;;;;99.00;57.22;;;;;;;0.33;72.08;95958.19;5088865;28;20028;-62
2023/01/28 11:31:15;;;;;;;35.95;28.10;;;;;;;0.46;70.48;95943.75;5090828;28;20559;-62
2023/01/28 11:33:55;;;;;;;37.60;29.75;;;;;;;0.40;71.30;95949.22;5089532;28;20085;-62
2023/01/28 11:36:23;;;;;;;26.58;23.08;;;;;;;0.46;70.17;95954.13;5080348;28;20038;-62
2023/01/28 11:38:54;;;;;;;24.95;22.10;;;;;;;0.56;70.86;95947.59;5088931;28;20028;-62
2023/01/28 11:41:30;;;;;;;25.38;22.35;;;;;;;0.70;70.08;95943.47;5090092;28;20024;-64
2023/01/28 11:43:58;;;;;;;33.47;25.50;;;;;;;0.57;69.34;95941.50;5089908;28;20044;-63
2023/01/28 11:46:24;;;;;;;42.72;30.00;;;;;;;0.53;69.25;95944.31;5090759;28;20403;-61
2023/01/28 11:48:51;;;;;;;31.73;25.85;;;;;;;0.50;70.83;95937.50;5090307;28;20089;-61
2023/01/28 11:51:42;;;;;;;30.38;24.98;;;;;;;0.47;71.02;95937.66;5089821;28;20094;-61
2023/01/28 11:54:28;;;;;;;33.72;24.98;;;;;;;0.55;68.44;95935.56;5090018;28;20020;-61